Time;durP1;ratioP1;P1;durP2;ratioP2;P2;SDS_P1;SDS_P2;PMS_P1;PMS_P2;Temp;Humidity;BMP_temperature;BMP_pressure;BME280_temperature;BME280_humidity;BME280_pressure;Samples;Min_cycle;Max_cycle;Signal;HPM_P1;HPM_P2
2021/08/19 00:01:47;;;;;;;9.80;4.60;;;;;;;-142.75;70.71;76469.91;4975951;28;19963;-80
2021/08/19 00:04:12;;;;;;;10.65;5.20;;;;;;;-142.75;70.77;76473.84;4980897;28;20035;-80
2021/08/19 00:06:38;;;;;;;10.68;5.78;;;;;;;-142.75;70.86;76473.84;5047176;28;20037;-80
2021/08/19 00:09:03;;;;;;;;;;;;;;;-142.75;70.92;76467.94;4982379;28;20023;-79
2021/08/19 00:11:28;;;;;;;15.65;5.78;;;;;;;-142.75;71.13;76464.00;5046139;28;20403;-82
2021/08/19 00:13:53;;;;;;;;;;;;;;;-142.75;71.04;76467.94;4975477;28;20030;-81
2021/08/19 00:16:19;;;;;;;10.15;4.85;;;;;;;-142.75;71.01;76448.25;4981172;28;19922;-79
2021/08/19 00:18:44;;;;;;;;;;;;;;;-142.75;70.40;76428.56;5049556;28;20403;-80
2021/08/19 00:21:10;;;;;;;9.43;5.00;;;;;;;-142.75;70.42;76440.38;4981450;28;19914;-79
2021/08/19 00:23:35;;;;;;;;;;;;;;;-142.75;70.46;76432.50;5051861;28;20072;-80
2021/08/19 00:26:01;;;;;;;10.60;6.10;;;;;;;-142.75;70.81;76448.25;5055795;28;19945;-83
2021/08/19 00:28:27;;;;;;;9.98;5.28;;;;;;;-142.75;71.24;76448.25;5044420;28;20031;-79
2021/08/19 00:30:52;;;;;;;16.63;6.18;;;;;;;-142.75;71.63;76462.03;5047461;28;20104;-80
2021/08/19 00:33:17;;;;;;;;;;;;;;;-142.75;71.63;76444.31;4981820;28;20153;-80
2021/08/19 00:35:42;;;;;;;16.17;6.15;;;;;;;-142.75;72.08;76465.97;5049897;28;19920;-81
2021/08/19 00:38:08;;;;;;;;;;;;;;;-142.75;72.52;76471.88;5047455;28;20113;-81
2021/08/19 00:40:34;;;;;;;15.63;6.45;;;;;;;-142.75;72.75;76471.88;4979005;28;19914;-81
2021/08/19 00:43:00;;;;;;;;;;;;;;;-142.75;72.84;76471.88;4979283;28;20481;-79
2021/08/19 00:45:26;;;;;;;13.38;5.40;;;;;;;-142.75;73.03;76467.94;4982255;28;19913;-80
2021/08/19 00:47:51;;;;;;;14.48;6.18;;;;;;;-142.75;73.22;76465.97;5042175;28;20078;-81
2021/08/19 00:50:16;;;;;;;;;;;;;;;-142.75;73.26;76467.94;5047969;28;20137;-79
2021/08/19 00:52:42;;;;;;;12.35;5.90;;;;;;;-142.75;73.28;76467.94;5047173;28;19917;-82
2021/08/19 00:55:09;;;;;;;;;;;;;;;-142.75;73.79;76471.88;5043704;28;20196;-79
2021/08/19 00:57:34;;;;;;;15.70;5.75;;;;;;;-142.75;73.83;76467.94;4985461;28;20372;-81
2021/08/19 01:00:00;;;;;;;;;;;;;;;-142.75;73.86;76462.03;5051555;28;20049;-79
2021/08/19 01:02:26;;;;;;;11.18;5.45;;;;;;;-142.75;73.86;76460.06;4978029;28;20356;-82
2021/08/19 01:04:51;;;;;;;;;;;;;;;-142.75;73.88;76456.13;5046397;28;20542;-81
2021/08/19 01:07:17;;;;;;;9.20;5.40;;;;;;;-142.75;74.30;76462.03;4981263;28;19918;-81
2021/08/19 01:09:43;;;;;;;9.10;4.72;;;;;;;-142.75;74.46;76460.06;4982564;28;20030;-80
2021/08/19 01:12:10;;;;;;;10.95;5.13;;;;;;;-142.75;74.29;76446.28;5045232;28;20080;-81
2021/08/19 01:14:36;;;;;;;11.20;5.53;;;;;;;-142.75;73.91;76444.31;5049602;28;20034;-82
2021/08/19 01:17:06;;;;;;;10.13;5.20;;;;;;;-142.75;nan;76444.31;5045355;28;20395;-82
2021/08/19 01:19:31;;;;;;;12.23;6.38;;;;;;;-142.75;74.04;76448.25;5043948;28;20412;-80
2021/08/19 01:21:57;;;;;;;12.85;6.05;;;;;;;-142.75;74.19;76452.19;5054636;28;20022;-79
2021/08/19 01:24:22;;;;;;;;;;;;;;;-142.75;73.78;76442.34;5049748;28;20492;-80
2021/08/19 01:26:48;;;;;;;10.63;5.20;;;;;;;-142.75;73.70;76436.44;4977334;28;19914;-79
2021/08/19 01:29:13;;;;;;;15.20;7.00;;;;;;;-142.75;73.73;76446.28;5049999;28;20108;-79
2021/08/19 01:31:39;;;;;;;;;;;;;;;-142.75;73.91;76460.06;4987186;28;20026;-79
2021/08/19 01:34:04;;;;;;;13.18;6.00;;;;;;;-142.75;74.23;76460.06;4985513;28;19914;-79
2021/08/19 01:36:29;;;;;;;;;;;;;;;-142.75;74.20;76456.13;5049599;28;20058;-80
2021/08/19 01:38:55;;;;;;;11.95;6.20;;;;;;;-142.75;74.17;76464.00;4982148;28;19913;-79
2021/08/19 01:41:20;;;;;;;;;;;;;;;-142.75;74.32;76469.91;5046349;28;20033;-81
2021/08/19 01:43:50;;;;;;;11.80;6.53;;;;;;;-142.75;74.19;76467.94;5042428;28;19959;-82
2021/08/19 01:46:17;;;;;;;13.32;7.35;;;;;;;-142.75;74.36;76477.78;5040858;28;20421;-79
2021/08/19 01:48:47;;;;;;;14.55;7.43;;;;;;;-142.75;74.40;76475.81;4980036;28;20534;-81
2021/08/19 01:51:13;;;;;;;11.82;7.22;;;;;;;-142.75;74.79;76473.84;4979161;28;20026;-80
2021/08/19 01:53:42;;;;;;;13.75;7.20;;;;;;;-142.75;74.91;76485.66;4982045;28;20066;-80
2021/08/19 01:56:08;;;;;;;10.23;6.47;;;;;;;-142.75;75.15;76483.69;5044909;28;20023;-80
2021/08/19 01:58:33;;;;;;;;;;;;;;;-142.75;75.15;76481.72;5044475;28;20026;-80
2021/08/19 02:00:58;;;;;;;9.77;6.15;;;;;;;-142.75;75.13;76495.50;4978825;28;19914;-80
2021/08/19 02:03:23;;;;;;;;;;;;;;;-142.75;75.07;76499.44;4982375;28;20026;-79
2021/08/19 02:05:49;;;;;;;12.52;7.18;;;;;;;-142.75;75.03;76519.13;4975720;28;19929;-80
2021/08/19 02:08:15;;;;;;;;;;;;;;;-142.75;75.17;76532.88;5044641;28;20510;-80
2021/08/19 02:10:40;;;;;;;12.07;6.10;;;;;;;-142.75;75.33;76544.69;5042520;28;19921;-80
2021/08/19 02:13:05;;;;;;;;;;;;;;;-142.75;75.15;76517.16;5043364;28;20020;-80
2021/08/19 02:15:31;;;;;;;18.73;7.97;;;;;;;-142.75;75.07;76538.78;5045226;28;20364;-80
2021/08/19 02:17:56;;;;;;;;;;;;;;;-142.75;75.40;76550.59;4981106;28;20035;-80
2021/08/19 02:20:22;;;;;;;12.40;7.72;;;;;;;-142.75;75.78;76566.34;4981230;28;19921;-81
2021/08/19 02:22:48;;;;;;;;;;;;;;;-142.75;76.12;76566.34;5043379;28;20110;-81
2021/08/19 02:25:15;;;;;;;12.00;6.82;;;;;;;-142.75;76.37;76582.09;5044274;28;20415;-80
2021/08/19 02:27:41;;;;;;;11.80;7.95;;;;;;;-142.75;76.44;76578.16;4975895;28;20031;-80
2021/08/19 02:30:07;;;;;;;12.45;7.53;;;;;;;-142.75;76.71;76597.84;5045294;28;20030;-79
2021/08/19 02:32:32;;;;;;;;;;;;;;;-142.75;76.80;76591.94;5044913;28;20058;-80
2021/08/19 02:34:58;;;;;;;17.92;9.10;;;;;;;-142.75;77.03;76586.03;5055324;28;19955;-79
2021/08/19 02:37:23;;;;;;;;;;;;;;;-142.75;77.20;76593.91;5046822;28;20114;-79
2021/08/19 02:39:48;;;;;;;19.02;8.00;;;;;;;-142.75;77.35;76574.22;5048905;28;19964;-81
2021/08/19 02:42:13;;;;;;;;;;;;;;;-142.75;77.42;76546.66;4983348;28;20072;-81
2021/08/19 02:44:38;;;;;;;12.07;6.60;;;;;;;-142.75;77.42;76548.63;5046283;28;20401;-80
2021/08/19 02:47:06;;;;;;;;;;;;;;;-142.75;77.59;76532.88;4981791;28;20033;-81
2021/08/19 02:49:31;;;;;;;15.80;7.57;;;;;;;-142.75;77.65;76536.84;4982162;28;19914;-80
2021/08/19 02:51:56;;;;;;;;;;;;;;;-142.75;78.01;76534.84;4980553;28;20457;-79
2021/08/19 02:54:21;;;;;;;18.80;8.15;;;;;;;-142.75;78.22;76527.00;4981325;28;19933;-81
2021/08/19 02:56:47;;;;;;;;;;;;;;;-142.75;78.27;76521.09;5055766;28;20059;-80
2021/08/19 02:59:12;;;;;;;17.02;8.73;;;;;;;-142.75;78.38;76519.13;4979790;28;20295;-80
2021/08/19 03:01:37;;;;;;;;;;;;;;;-142.75;78.56;76519.13;4983103;28;20018;-80
2021/08/19 03:04:02;;;;;;;14.73;7.78;;;;;;;-142.75;78.72;76525.03;5047243;28;19914;-81
2021/08/19 03:06:28;;;;;;;;;;;;;;;-142.75;78.56;76499.44;5051649;28;20030;-80
2021/08/19 03:08:53;;;;;;;18.52;7.22;;;;;;;-142.75;78.28;76489.59;5047210;28;19921;-80
2021/08/19 03:11:18;;;;;;;;;;;;;;;-142.75;78.03;76471.88;5047473;28;20029;-80
2021/08/19 03:13:43;;;;;;;15.50;7.00;;;;;;;-142.75;77.66;76471.88;4977236;28;19948;-81
2021/08/19 03:16:09;;;;;;;;;;;;;;;-142.75;77.17;76452.19;4979937;28;20034;-81
2021/08/19 03:18:34;;;;;;;16.85;6.85;;;;;;;-142.75;77.00;76460.06;4984864;28;19914;-80
2021/08/19 03:21:00;;;;;;;;;;;;;;;-142.75;76.83;76454.16;4982354;28;20473;-80
2021/08/19 03:23:25;;;;;;;17.67;6.93;;;;;;;-142.75;76.36;76456.13;5052898;28;19922;-80
2021/08/19 03:25:51;;;;;;;15.48;6.50;;;;;;;-142.75;76.01;76444.31;5046424;28;20080;-80
2021/08/19 03:28:16;;;;;;;14.43;6.72;;;;;;;-142.75;75.64;76440.38;4982933;28;20019;-79
2021/08/19 03:30:42;;;;;;;;;;;;;;;-142.75;75.30;76432.50;5049234;28;20022;-80
2021/08/19 03:33:08;;;;;;;18.73;6.88;;;;;;;-142.75;75.15;76434.47;4984186;28;20029;-80
2021/08/19 03:35:33;;;;;;;;;;;;;;;-142.75;74.93;76434.47;4980013;28;20518;-81
2021/08/19 03:37:58;;;;;;;13.50;6.95;;;;;;;-142.75;74.94;76438.41;5051290;28;20389;-80
2021/08/19 03:40:24;;;;;;;;;;;;;;;-142.75;75.42;76444.31;5052832;28;20138;-81
2021/08/19 03:42:49;;;;;;;18.40;7.57;;;;;;;-142.75;75.51;76448.25;5044968;28;19921;-77
2021/08/19 03:45:18;;;;;;;;;;;;;;;-142.75;75.08;76432.50;5043677;28;20023;-79
2021/08/19 03:47:44;;;;;;;20.15;7.90;;;;;;;-142.75;74.90;76430.53;5038968;28;19929;-80
2021/08/19 03:50:09;;;;;;;15.40;7.68;;;;;;;-142.75;74.80;76424.63;5047258;28;20018;-79
2021/08/19 03:52:35;;;;;;;;;;;;;;;-142.75;74.64;76420.69;5046728;28;20030;-79
2021/08/19 03:55:00;;;;;;;16.23;8.30;;;;;;;-142.75;73.95;76408.88;5048816;28;20004;-79
2021/08/19 03:57:25;;;;;;;;;;;;;;;-142.75;73.36;76401.00;5050821;28;20030;-80
2021/08/19 03:59:51;;;;;;;12.27;7.10;;;;;;;-142.75;73.27;76395.09;4979769;28;20371;-78
2021/08/19 04:02:16;;;;;;;;;;;;;;;-142.75;72.90;76393.13;5044860;28;20379;-79
2021/08/19 04:04:41;;;;;;;11.30;6.47;;;;;;;-142.75;72.63;76393.13;5052859;28;19987;-80
2021/08/19 04:07:06;;;;;;;;;;;;;;;-142.75;72.58;76399.03;5051864;28;20409;-80
2021/08/19 04:09:32;;;;;;;12.00;6.40;;;;;;;-142.75;72.08;76395.09;4985798;28;19910;-79
2021/08/19 04:11:57;;;;;;;;;;;;;;;-142.75;71.68;76387.22;5051817;28;20454;-80
2021/08/19 04:14:22;;;;;;;14.30;6.90;;;;;;;-142.75;71.69;76391.16;5044426;28;19921;-80
2021/08/19 04:16:47;;;;;;;;;;;;;;;-142.75;71.58;76393.13;4982984;28;20023;-81
2021/08/19 04:19:13;;;;;;;11.07;6.10;;;;;;;-142.75;71.56;76401.00;5054499;28;20268;-80
2021/08/19 04:21:38;;;;;;;;;;;;;;;-142.75;71.35;76399.03;5048522;28;20053;-78
2021/08/19 04:24:04;;;;;;;8.18;5.78;;;;;;;-142.75;70.83;76397.06;4987480;28;19914;-79
2021/08/19 04:26:29;;;;;;;;;;;;;;;-142.75;70.94;76401.00;5046257;28;20035;-80
2021/08/19 04:28:54;;;;;;;13.15;5.75;;;;;;;-142.75;70.88;76402.97;4980483;28;20002;-80
2021/08/19 04:31:19;;;;;;;;;;;;;;;-142.75;70.83;76399.03;4987672;28;20022;-80
2021/08/19 04:33:44;;;;;;;8.10;4.95;;;;;;;-142.75;70.85;76399.03;4982201;28;19960;-79
2021/08/19 04:36:10;;;;;;;;;;;;;;;-142.75;70.67;76401.00;4980178;28;20129;-80
2021/08/19 04:38:35;;;;;;;9.75;5.00;;;;;;;-142.75;70.20;76397.06;5050578;28;19921;-80
2021/08/19 04:41:01;;;;;;;8.90;4.63;;;;;;;-142.75;69.80;76395.09;5049503;28;20023;-80
2021/08/19 04:43:26;;;;;;;;;;;;;;;-142.75;69.78;76393.13;5044087;28;20019;-79
2021/08/19 04:45:51;;;;;;;10.45;4.55;;;;;;;-142.75;69.91;76395.09;5041961;28;20016;-77
2021/08/19 04:48:17;;;;;;;;;;;;;;;-142.75;70.40;76393.13;5076923;22;20026;-78
2021/08/19 04:50:42;;;;;;;7.45;4.75;;;;;;;-142.75;70.80;76401.00;5066798;28;19921;-80
2021/08/19 04:53:08;;;;;;;;;;;;;;;-142.75;71.17;76401.00;5077481;28;20487;-79
2021/08/19 04:55:33;;;;;;;9.13;5.18;;;;;;;-142.75;71.18;76408.88;4999423;28;19917;-78
2021/08/19 04:57:58;;;;;;;;;;;;;;;-142.75;71.08;76406.91;5007890;28;20466;-78
2021/08/19 05:00:23;;;;;;;7.40;4.40;;;;;;;-142.75;71.88;76408.88;5009974;28;19924;-78
2021/08/19 05:02:48;;;;;;;;;;;;;;;-142.75;71.91;76412.81;5069019;28;21237;-79
2021/08/19 05:05:14;;;;;;;10.27;4.57;;;;;;;-142.75;72.24;76412.81;5005764;28;19914;-78
2021/08/19 05:07:39;;;;;;;;;;;;;;;-142.75;71.93;76402.97;5004333;28;20022;-79
2021/08/19 05:10:05;;;;;;;8.52;4.60;;;;;;;-142.75;71.84;76397.06;5002187;28;19920;-79
2021/08/19 05:12:30;;;;;;;7.18;4.60;;;;;;;-142.75;72.05;76401.00;5011816;28;20488;-80
2021/08/19 05:14:56;;;;;;;8.98;5.43;;;;;;;-142.75;72.02;76404.94;5074801;28;20041;-80
2021/08/19 05:17:21;;;;;;;;;;;;;;;-142.75;72.01;76399.03;5010900;28;20029;-79
2021/08/19 05:19:46;;;;;;;10.30;4.88;;;;;;;-142.75;72.01;76402.97;5066295;28;19975;-78
2021/08/19 05:22:11;;;;;;;;;;;;;;;-142.75;72.27;76402.97;5064699;28;20053;-79
2021/08/19 05:24:36;;;;;;;14.70;5.10;;;;;;;-142.75;72.40;76410.84;5013645;28;20281;-78
2021/08/19 05:27:02;;;;;;;;;;;;;;;-142.75;72.61;76404.94;5079151;28;20075;-79
2021/08/19 05:29:27;;;;;;;10.50;4.55;;;;;;;-142.75;72.83;76416.75;5011355;28;19914;-80
2021/08/19 05:31:52;;;;;;;;;;;;;;;-142.75;73.06;76414.78;5074693;28;20014;-80
2021/08/19 05:34:18;;;;;;;9.43;5.07;;;;;;;-142.75;73.26;76410.84;5004410;28;19959;-78
2021/08/19 05:36:43;;;;;;;14.43;5.30;;;;;;;-142.75;73.40;76410.84;4991837;28;20052;-80
2021/08/19 05:39:08;;;;;;;9.23;4.57;;;;;;;-142.75;73.51;76408.88;5005944;28;20022;-79
2021/08/19 05:41:33;;;;;;;;;;;;;;;-142.75;73.71;76410.84;5078985;28;20037;-78
2021/08/19 05:43:59;;;;;;;9.52;5.40;;;;;;;-142.75;73.65;76416.75;4999606;28;20401;-79
2021/08/19 05:46:24;;;;;;;;;;;;;;;-142.75;72.93;76408.88;4999719;28;20037;-80
2021/08/19 05:48:49;;;;;;;8.82;4.95;;;;;;;-142.75;72.15;76402.97;4996215;28;19953;-79
2021/08/19 05:51:16;;;;;;;11.35;5.47;;;;;;;-142.75;72.30;76408.88;5058931;28;20050;-80
2021/08/19 05:53:42;;;;;;;10.30;5.63;;;;;;;-142.75;72.45;76408.88;5000600;28;20028;-78
2021/08/19 05:56:07;;;;;;;9.45;5.53;;;;;;;-142.75;72.42;76408.88;5062409;28;20049;-79
2021/08/19 05:58:32;;;;;;;11.55;5.70;;;;;;;-142.75;72.67;76408.88;4992217;28;20037;-80
2021/08/19 06:00:58;;;;;;;;;;;;;;;-142.75;72.26;76393.13;4999177;28;20438;-79
2021/08/19 06:03:23;;;;;;;10.68;5.57;;;;;;;-142.75;71.66;76385.25;4992903;28;19940;-80
2021/08/19 06:05:49;;;;;;;11.68;5.18;;;;;;;-142.75;71.75;76395.09;4994441;28;20022;-80
2021/08/19 06:08:14;;;;;;;;;;;;;;;-142.75;71.07;76383.28;5077385;28;20116;-79
2021/08/19 06:10:40;;;;;;;11.05;5.55;;;;;;;-142.75;70.80;76381.31;5014500;28;19913;-80
2021/08/19 06:13:05;;;;;;;;;;;;;;;-142.75;70.72;76381.31;5079916;28;20033;-79
2021/08/19 06:15:30;;;;;;;13.20;6.07;;;;;;;-142.75;70.53;76383.28;5083096;28;19926;-79
2021/08/19 06:17:56;;;;;;;;;;;;;;;-142.75;70.63;76385.25;5013400;28;20167;-78
2021/08/19 06:20:21;;;;;;;9.50;5.95;;;;;;;-142.75;70.42;76381.31;5004377;28;19913;-79
2021/08/19 06:22:46;;;;;;;;;;;;;;;-142.75;69.90;76375.41;4994885;28;20026;-79
2021/08/19 06:25:13;;;;;;;11.07;6.22;;;;;;;-142.75;70.03;76377.38;5073207;28;19914;-78
2021/08/19 06:27:39;;;;;;;9.73;6.43;;;;;;;-142.75;69.94;76375.41;5077123;28;20693;-79
2021/08/19 06:30:05;;;;;;;17.00;5.80;;;;;;;-142.75;70.03;76363.59;5067716;28;20036;-79
2021/08/19 06:32:31;;;;;;;10.00;6.63;;;;;;;-142.75;69.88;76363.59;4998691;28;20057;-78
2021/08/19 06:34:56;;;;;;;9.95;6.35;;;;;;;-142.75;69.35;76361.63;4995170;28;20030;-79
2021/08/19 06:37:21;;;;;;;;;;;;;;;-142.75;69.35;76349.81;5012995;28;20037;-79
2021/08/19 06:39:46;;;;;;;9.75;5.63;;;;;;;-142.75;69.17;76355.72;5015317;28;19914;-78
2021/08/19 06:42:11;;;;;;;;;;;;;;;-142.75;68.77;76341.97;5003239;28;20026;-79
2021/08/19 06:44:37;;;;;;;9.45;5.85;;;;;;;-142.75;68.81;76353.78;4994840;28;19987;-79
2021/08/19 06:47:02;;;;;;;;;;;;;;;-142.75;69.27;76355.72;5061809;28;20026;-79
2021/08/19 06:49:27;;;;;;;10.05;6.45;;;;;;;-142.75;69.60;76363.59;5063880;28;19914;-80
2021/08/19 06:51:52;;;;;;;;;;;;;;;-142.75;69.71;76361.63;5079235;28;20060;-79
2021/08/19 06:54:18;;;;;;;8.55;5.95;;;;;;;-142.75;70.23;76369.50;5085298;28;19998;-78
2021/08/19 06:56:43;;;;;;;;;;;;;;;-142.75;69.94;76363.59;5016605;28;20026;-78
2021/08/19 06:59:08;;;;;;;13.68;6.05;;;;;;;-142.75;69.47;76363.59;5014288;28;20017;-79
2021/08/19 07:01:33;;;;;;;12.38;6.15;;;;;;;-142.75;69.47;76365.56;5060904;28;20034;-78
2021/08/19 07:03:58;;;;;;;;;;;;;;;-142.75;69.58;76365.56;4995083;28;20043;-78
2021/08/19 07:06:24;;;;;;;11.40;5.93;;;;;;;-142.75;69.69;76367.53;5002977;28;19918;-78
2021/08/19 07:08:49;;;;;;;;;;;;;;;-142.75;69.53;76359.66;5081765;28;20026;-77
2021/08/19 07:11:14;;;;;;;11.38;6.72;;;;;;;-142.75;69.57;76367.53;5011695;28;19920;-77
2021/08/19 07:13:40;;;;;;;;;;;;;;;-142.75;69.60;76365.56;5080700;28;20022;-78
2021/08/19 07:16:05;;;;;;;14.20;6.60;;;;;;;-142.75;69.72;76361.63;5012485;28;19913;-77
2021/08/19 07:18:30;;;;;;;10.27;6.80;;;;;;;-142.75;69.72;76359.66;5012823;28;20104;-78
2021/08/19 07:20:56;;;;;;;13.55;6.85;;;;;;;-142.75;69.32;76353.78;5082160;28;20028;-77
2021/08/19 07:23:21;;;;;;;15.95;7.15;;;;;;;-142.75;68.70;76326.22;5013201;28;20046;-78
2021/08/19 07:25:46;;;;;;;;;;;;;;;-142.75;68.24;76310.47;5014271;28;20029;-77
2021/08/19 07:28:12;;;;;;;12.80;6.90;;;;;;;-142.75;68.46;76326.22;5073182;28;19913;-79
2021/08/19 07:30:38;;;;;;;;;;;;;;;-142.75;68.13;76318.34;5082351;28;20064;-78
2021/08/19 07:33:03;;;;;;;13.10;6.65;;;;;;;-142.75;68.05;76318.34;5014759;28;19929;-78
2021/08/19 07:35:29;;;;;;;12.10;6.95;;;;;;;-142.75;67.78;76314.41;5082866;28;20089;-76
2021/08/19 07:37:55;;;;;;;10.30;6.55;;;;;;;-142.75;67.85;76310.47;5082245;28;20026;-78
2021/08/19 07:40:29;;;;;;;12.07;7.55;;;;;;;-142.75;68.15;76310.47;4998400;28;20113;-79
2021/08/19 07:42:55;;;;;;;10.75;7.20;;;;;;;-142.75;68.46;76306.53;4994726;28;20034;-78
2021/08/19 07:45:22;;;;;;;10.60;7.07;;;;;;;-142.75;68.66;76306.53;4994600;28;20448;-78
2021/08/19 07:47:48;;;;;;;10.80;7.35;;;;;;;-142.75;68.46;76306.53;4995017;28;20118;-78
2021/08/19 07:50:14;;;;;;;11.50;6.80;;;;;;;-142.75;67.66;76300.63;5061035;28;20066;-79
2021/08/19 07:52:40;;;;;;;15.25;6.88;;;;;;;-142.75;66.85;76300.63;5061767;28;20455;-79
2021/08/19 07:55:07;;;;;;;16.02;7.18;;;;;;;-142.75;66.90;76290.78;5060814;28;20057;-79
2021/08/19 07:57:44;;;;;;;11.80;6.90;;;;;;;-142.75;67.07;76294.72;5059708;28;20038;-78
2021/08/19 08:00:10;;;;;;;14.40;6.78;;;;;;;-142.75;66.30;76288.81;4992387;28;20026;-76
2021/08/19 08:02:35;;;;;;;11.05;6.68;;;;;;;-142.75;66.52;76290.78;4991670;28;20038;-76
2021/08/19 08:05:00;;;;;;;13.93;7.35;;;;;;;-142.75;66.30;76294.72;5063529;28;20523;-78
2021/08/19 08:07:25;;;;;;;;;;;;;;;-142.75;66.53;76286.84;5012888;28;20365;-78
2021/08/19 08:09:51;;;;;;;13.52;7.13;;;;;;;-142.75;66.90;76288.81;5079971;28;20389;-77
2021/08/19 08:12:16;;;;;;;;;;;;;;;-142.75;66.54;76278.97;5013099;28;20114;-77
2021/08/19 08:14:41;;;;;;;12.88;7.07;;;;;;;-142.75;66.36;76282.91;5012805;28;19982;-79
2021/08/19 08:17:06;;;;;;;13.73;7.55;;;;;;;-142.75;66.02;76284.88;5081487;28;20330;-78
2021/08/19 08:19:32;;;;;;;14.88;7.00;;;;;;;-142.75;66.22;76288.81;5080643;28;20028;-79
2021/08/19 08:21:57;;;;;;;;;;;;;;;-142.75;66.02;76286.84;4997742;28;20033;-78
2021/08/19 08:24:22;;;;;;;13.05;7.22;;;;;;;-142.75;66.02;76286.84;5072213;28;19933;-79
2021/08/19 08:26:47;;;;;;;;;;;;;;;-142.75;66.29;76275.03;4993465;28;20046;-78
2021/08/19 08:29:13;;;;;;;9.65;6.78;;;;;;;-142.75;65.98;76269.13;4993511;28;19913;-78
2021/08/19 08:31:39;;;;;;;;;;;;;;;-142.75;66.22;76263.22;5059459;28;20079;-78
2021/08/19 08:34:04;;;;;;;12.40;6.20;;;;;;;-142.75;66.22;76259.28;4999482;28;19967;-77
2021/08/19 08:36:30;;;;;;;8.57;6.32;;;;;;;-142.75;65.40;76255.34;5012412;28;20022;-77
2021/08/19 08:38:56;;;;;;;11.55;6.90;;;;;;;-142.75;65.10;76251.41;5001514;28;20397;-78
2021/08/19 08:41:22;;;;;;;14.23;6.93;;;;;;;-142.75;65.19;76239.59;4992688;28;20083;-78
2021/08/19 08:43:48;;;;;;;10.73;6.50;;;;;;;-142.75;65.32;76245.50;4991959;28;20022;-77
2021/08/19 08:46:17;;;;;;;9.85;6.50;;;;;;;-142.75;64.59;76237.63;4992964;28;20053;-77
2021/08/19 08:48:44;;;;;;;10.10;6.57;;;;;;;-142.75;64.96;76231.72;4992481;28;20030;-77
2021/08/19 08:51:09;;;;;;;12.77;6.80;;;;;;;-142.75;65.81;76227.78;4995884;28;20048;-77
2021/08/19 08:53:35;;;;;;;8.75;6.75;;;;;;;-142.75;65.74;76217.94;5069069;28;20442;-77
2021/08/19 08:56:00;;;;;;;;;;;;;;;-142.75;65.12;76215.97;5059607;28;20030;-77
2021/08/19 08:58:25;;;;;;;11.85;7.15;;;;;;;-142.75;64.69;76208.09;4993870;28;19914;-79
2021/08/19 09:00:51;;;;;;;17.50;7.80;;;;;;;-142.75;64.17;76215.97;5011476;28;20056;-77
2021/08/19 09:03:16;;;;;;;;;;;;;;;-142.75;64.44;76223.84;5011547;28;20030;-76
2021/08/19 09:05:44;;;;;;;10.18;7.00;;;;;;;-142.75;64.23;76221.88;5078215;28;19921;-78
2021/08/19 09:08:15;;;;;;;12.50;7.15;;;;;;;-142.75;64.43;76215.97;5011439;28;20030;-77
2021/08/19 09:10:41;;;;;;;10.85;7.63;;;;;;;-142.75;64.87;76214.00;5011732;28;20112;-78
2021/08/19 09:13:08;;;;;;;12.48;7.55;;;;;;;-142.75;64.78;76208.09;5011831;28;20026;-78
2021/08/19 09:15:34;;;;;;;11.85;7.47;;;;;;;-142.75;65.12;76208.09;5009324;28;20098;-77
2021/08/19 09:18:01;;;;;;;14.93;7.47;;;;;;;-142.75;64.60;76204.16;5003214;28;20026;-77
2021/08/19 09:20:46;;;;;;;10.25;7.35;;;;;;;-142.75;64.05;76204.16;5058185;28;20041;-78
2021/08/19 09:23:14;;;;;;;12.23;7.15;;;;;;;-142.75;63.81;76204.16;5057363;28;20049;-78
2021/08/19 09:25:42;;;;;;;12.93;6.80;;;;;;;-142.75;64.25;76204.16;5057850;28;20037;-79
2021/08/19 09:28:08;;;;;;;11.82;7.18;;;;;;;-142.75;63.94;76208.09;4991140;28;20076;-76
2021/08/19 09:30:34;;;;;;;12.88;7.25;;;;;;;-142.75;62.67;76198.28;5056622;28;20022;-77
2021/08/19 09:33:02;;;;;;;13.85;6.75;;;;;;;-142.75;62.46;76180.56;4993048;28;20392;-76
2021/08/19 09:35:28;;;;;;;8.80;6.70;;;;;;;-142.75;62.12;76186.47;5010980;28;20025;-77
2021/08/19 09:37:53;;;;;;;11.55;6.70;;;;;;;-142.75;62.63;76184.50;5077330;28;20033;-77
2021/08/19 09:40:19;;;;;;;13.10;7.20;;;;;;;-142.75;63.09;76176.63;5058601;28;20082;-77
2021/08/19 09:42:45;;;;;;;10.18;6.63;;;;;;;-142.75;62.74;76176.63;5008676;28;20032;-76
2021/08/19 09:45:21;;;;;;;10.10;6.30;;;;;;;-142.75;61.18;76160.88;5010759;28;20026;-78
2021/08/19 09:47:46;;;;;;;9.55;5.80;;;;;;;-142.75;61.20;76170.72;5077264;28;20170;-76
2021/08/19 09:50:17;;;;;;;13.65;6.65;;;;;;;-142.75;61.82;76182.53;4992500;28;20080;-78
2021/08/19 09:52:45;;;;;;;10.27;5.80;;;;;;;-142.75;61.15;76192.38;4992519;28;20477;-77
2021/08/19 09:55:22;;;;;;;10.82;6.18;;;;;;;-142.75;61.72;76198.28;5009178;28;20100;-78
2021/08/19 09:57:48;;;;;;;11.05;5.85;;;;;;;-142.75;61.41;76202.19;5009808;28;20079;-77
2021/08/19 10:00:24;;;;;;;7.78;5.50;;;;;;;-142.75;62.71;76194.34;5009235;28;20100;-77
2021/08/19 10:02:49;;;;;;;10.55;6.00;;;;;;;-142.75;63.63;76212.03;5010198;28;20155;-77
2021/08/19 10:05:15;;;;;;;11.13;6.13;;;;;;;-142.75;63.93;76200.25;5009188;28;20053;-77
2021/08/19 10:07:40;;;;;;;9.07;6.13;;;;;;;-142.75;64.10;76206.13;5007633;28;20026;-77
2021/08/19 10:10:07;;;;;;;11.70;5.63;;;;;;;-142.75;64.37;76208.09;4989764;28;20018;-76
2021/08/19 10:12:33;;;;;;;15.98;6.63;;;;;;;-142.75;64.86;76219.91;5069448;28;20030;-77
2021/08/19 10:14:58;;;;;;;8.45;6.28;;;;;;;-142.75;65.10;76223.84;5009114;28;20396;-77
2021/08/19 10:17:25;;;;;;;11.50;6.05;;;;;;;-142.75;65.21;76219.91;5075866;28;20034;-77
2021/08/19 10:19:52;;;;;;;10.77;6.60;;;;;;;-142.75;64.85;76231.72;5077501;28;20030;-76
2021/08/19 10:22:20;;;;;;;12.20;6.50;;;;;;;-142.75;65.14;76241.56;5009538;28;20025;-78
2021/08/19 10:24:51;;;;;;;11.07;7.05;;;;;;;-142.75;65.95;76261.25;5009311;28;20053;-78
2021/08/19 10:27:16;;;;;;;12.77;6.75;;;;;;;-142.75;66.42;76267.16;5070231;28;20037;-77
2021/08/19 10:29:44;;;;;;;10.38;6.70;;;;;;;-142.75;66.91;76292.75;5009169;28;20030;-77
2021/08/19 10:32:30;;;;;;;8.43;6.50;;;;;;;-142.75;66.97;76271.09;5009628;28;20032;-77
2021/08/19 10:35:14;;;;;;;9.50;6.55;;;;;;;-142.75;67.65;76288.81;5065317;28;20030;-77
2021/08/19 10:37:49;;;;;;;19.17;6.57;;;;;;;-142.75;67.98;76282.91;5075582;28;20022;-79
2021/08/19 10:40:21;;;;;;;9.25;5.70;;;;;;;-142.75;68.42;76302.59;5072380;28;20053;-77
2021/08/19 10:42:47;;;;;;;10.00;5.53;;;;;;;-142.75;68.85;76322.28;4988958;28;20030;-76
2021/08/19 10:45:28;;;;;;;7.65;4.80;;;;;;;-142.75;69.11;76330.16;5057303;28;20022;-77
2021/08/19 10:47:54;;;;;;;9.35;4.57;;;;;;;-142.75;69.73;76324.25;4995177;28;20080;-77
2021/08/19 10:50:35;;;;;;;7.72;4.10;;;;;;;-142.75;70.33;76308.50;5002974;23;20535;-79
2021/08/19 10:53:22;;;;;;;8.60;3.45;;;;;;;-142.75;70.34;76290.78;5044302;28;20325;-78
2021/08/19 10:55:53;;;;;;;10.85;4.57;;;;;;;-142.75;70.58;76322.28;4977326;28;20113;-79
2021/08/19 10:58:31;;;;;;;5.63;3.53;;;;;;;-142.75;70.55;76322.28;5057729;28;20034;-81
2021/08/19 11:01:22;;;;;;;8.95;4.80;;;;;;;-142.75;71.65;76345.91;4961640;28;20057;-80
2021/08/19 11:03:52;;;;;;;11.07;5.03;;;;;;;-142.75;71.78;76341.97;5029053;28;20038;-81
2021/08/19 11:06:45;;;;;;;8.32;5.35;;;;;;;-142.75;72.18;76369.50;5036850;28;20489;-80
2021/08/19 11:09:16;;;;;;;8.48;5.60;;;;;;;-142.75;72.66;76387.22;4964186;28;20037;-77
2021/08/19 11:11:41;;;;;;;7.68;5.05;;;;;;;-142.75;73.47;76401.00;5042974;28;20030;-77
2021/08/19 11:14:10;;;;;;;13.30;5.43;;;;;;;-142.75;73.92;76408.88;5027868;28;20035;-78
2021/08/19 11:16:37;;;;;;;11.02;6.68;;;;;;;-142.75;74.44;76410.84;4961099;28;20028;-77
2021/08/19 11:19:13;;;;;;;9.43;6.28;;;;;;;-142.75;74.20;76385.25;4956185;28;20031;-78
2021/08/19 11:21:39;;;;;;;10.98;7.32;;;;;;;-142.75;74.47;76426.59;4960147;28;20069;-76
2021/08/19 11:24:07;;;;;;;16.90;7.93;;;;;;;-142.75;74.67;76418.72;4959172;28;20069;-78
2021/08/19 11:26:32;;;;;;;12.60;7.53;;;;;;;-142.75;74.64;76428.56;4956474;28;20401;-77
2021/08/19 11:28:58;;;;;;;14.88;7.45;;;;;;;-142.75;75.05;76434.47;4962017;28;20027;-76